sensor_id;sensor_type;location;lat;lon;timestamp;P1;durP1;ratioP1;P2;durP2;ratioP2
68379;SDS011;57711;53.196;19.638;2024-01-06T11:07:30;82.10;;;35.30;;
68379;SDS011;57711;53.196;19.638;2024-01-06T11:10:24;23.50;;;14.30;;
68379;SDS011;57711;53.196;19.638;2024-01-06T11:13:09;34.40;;;17.50;;
68379;SDS011;57711;53.196;19.638;2024-01-06T11:15:43;37.00;;;18.80;;
68379;SDS011;57711;53.196;19.638;2024-01-06T11:24:17;41.60;;;24.10;;
68379;SDS011;57711;53.196;19.638;2024-01-06T11:26:52;22.70;;;14.10;;
68379;SDS011;57711;53.196;19.638;2024-01-06T11:29:23;31.90;;;21.10;;
68379;SDS011;57711;53.196;19.638;2024-01-06T11:34:46;25.30;;;15.10;;
68379;SDS011;57711;53.196;19.638;2024-01-06T11:37:50;23.60;;;14.40;;
68379;SDS011;57711;53.196;19.638;2024-01-06T11:42:41;22.60;;;11.20;;
68379;SDS011;57711;53.196;19.638;2024-01-06T11:45:09;28.50;;;14.30;;
68379;SDS011;57711;53.196;19.638;2024-01-06T11:47:57;20.50;;;9.70;;
68379;SDS011;57711;53.196;19.638;2024-01-06T11:50:26;16.50;;;10.40;;
68379;SDS011;57711;53.196;19.638;2024-01-06T11:52:54;19.90;;;11.90;;
68379;SDS011;57711;53.196;19.638;2024-01-06T11:55:22;15.10;;;7.90;;
68379;SDS011;57711;53.196;19.638;2024-01-06T11:57:50;15.60;;;9.20;;
68379;SDS011;57711;53.196;19.638;2024-01-06T12:00:17;28.40;;;13.40;;
68379;SDS011;57711;53.196;19.638;2024-01-06T12:02:45;24.50;;;14.20;;
68379;SDS011;57711;53.196;19.638;2024-01-06T12:05:15;33.00;;;15.90;;
68379;SDS011;57711;53.196;19.638;2024-01-06T12:10:22;33.80;;;17.40;;
68379;SDS011;57711;53.196;19.638;2024-01-06T12:13:03;21.60;;;12.00;;
68379;SDS011;57711;53.196;19.638;2024-01-06T12:15:32;30.60;;;15.00;;
68379;SDS011;57711;53.196;19.638;2024-01-06T12:18:05;17.80;;;10.00;;
68379;SDS011;57711;53.196;19.638;2024-01-06T12:20:34;16.50;;;9.10;;
68379;SDS011;57711;53.196;19.638;2024-01-06T12:23:01;24.40;;;12.70;;
68379;SDS011;57711;53.196;19.638;2024-01-06T12:25:34;20.60;;;11.60;;
68379;SDS011;57711;53.196;19.638;2024-01-06T12:28:06;19.30;;;12.10;;
68379;SDS011;57711;53.196;19.638;2024-01-06T12:30:34;20.20;;;11.40;;
68379;SDS011;57711;53.196;19.638;2024-01-06T12:33:03;24.00;;;11.80;;
68379;SDS011;57711;53.196;19.638;2024-01-06T12:35:31;31.80;;;15.60;;
68379;SDS011;57711;53.196;19.638;2024-01-06T12:37:59;25.10;;;12.10;;
68379;SDS011;57711;53.196;19.638;2024-01-06T12:40:27;41.00;;;17.20;;
68379;SDS011;57711;53.196;19.638;2024-01-06T12:42:55;40.40;;;14.60;;
68379;SDS011;57711;53.196;19.638;2024-01-06T12:45:22;40.90;;;15.10;;
68379;SDS011;57711;53.196;19.638;2024-01-06T12:47:50;40.80;;;19.00;;
68379;SDS011;57711;53.196;19.638;2024-01-06T12:50:31;71.50;;;34.30;;
68379;SDS011;57711;53.196;19.638;2024-01-06T12:53:09;123.90;;;57.70;;
68379;SDS011;57711;53.196;19.638;2024-01-06T12:55:38;63.10;;;27.70;;
68379;SDS011;57711;53.196;19.638;2024-01-06T12:58:06;55.10;;;24.20;;
68379;SDS011;57711;53.196;19.638;2024-01-06T13:00:35;33.20;;;16.00;;
68379;SDS011;57711;53.196;19.638;2024-01-06T13:03:03;22.90;;;11.20;;
68379;SDS011;57711;53.196;19.638;2024-01-06T13:05:31;26.40;;;11.90;;
68379;SDS011;57711;53.196;19.638;2024-01-06T13:07:59;41.10;;;18.60;;
68379;SDS011;57711;53.196;19.638;2024-01-06T13:10:26;49.50;;;20.70;;
68379;SDS011;57711;53.196;19.638;2024-01-06T13:12:55;26.40;;;11.90;;
68379;SDS011;57711;53.196;19.638;2024-01-06T13:15:42;28.90;;;12.50;;
68379;SDS011;57711;53.196;19.638;2024-01-06T13:18:09;17.60;;;10.60;;
68379;SDS011;57711;53.196;19.638;2024-01-06T13:20:37;24.10;;;10.40;;
68379;SDS011;57711;53.196;19.638;2024-01-06T13:23:07;16.40;;;7.90;;
68379;SDS011;57711;53.196;19.638;2024-01-06T13:25:35;20.20;;;9.70;;
68379;SDS011;57711;53.196;19.638;2024-01-06T13:28:02;28.10;;;13.60;;
68379;SDS011;57711;53.196;19.638;2024-01-06T13:30:30;28.40;;;14.30;;
68379;SDS011;57711;53.196;19.638;2024-01-06T13:32:59;33.00;;;15.50;;
68379;SDS011;57711;53.196;19.638;2024-01-06T13:35:27;34.10;;;16.90;;
68379;SDS011;57711;53.196;19.638;2024-01-06T13:37:55;29.60;;;14.70;;
68379;SDS011;57711;53.196;19.638;2024-01-06T13:40:23;43.00;;;18.10;;
68379;SDS011;57711;53.196;19.638;2024-01-06T13:42:51;29.70;;;13.60;;
68379;SDS011;57711;53.196;19.638;2024-01-06T13:45:19;32.40;;;14.20;;
68379;SDS011;57711;53.196;19.638;2024-01-06T13:47:51;24.30;;;10.50;;
68379;SDS011;57711;53.196;19.638;2024-01-06T13:50:51;23.50;;;11.50;;
68379;SDS011;57711;53.196;19.638;2024-01-06T13:53:19;26.70;;;10.80;;
68379;SDS011;57711;53.196;19.638;2024-01-06T13:55:46;23.70;;;10.60;;
68379;SDS011;57711;53.196;19.638;2024-01-06T13:58:13;23.50;;;12.10;;
68379;SDS011;57711;53.196;19.638;2024-01-06T14:00:42;36.80;;;14.80;;
68379;SDS011;57711;53.196;19.638;2024-01-06T14:03:10;31.40;;;13.50;;
68379;SDS011;57711;53.196;19.638;2024-01-06T14:05:38;25.60;;;13.00;;
68379;SDS011;57711;53.196;19.638;2024-01-06T14:08:06;31.70;;;13.30;;
68379;SDS011;57711;53.196;19.638;2024-01-06T14:10:34;27.10;;;13.20;;
68379;SDS011;57711;53.196;19.638;2024-01-06T14:13:01;29.50;;;12.20;;
68379;SDS011;57711;53.196;19.638;2024-01-06T14:15:29;34.20;;;15.40;;
68379;SDS011;57711;53.196;19.638;2024-01-06T14:17:57;48.50;;;16.60;;
68379;SDS011;57711;53.196;19.638;2024-01-06T14:20:26;52.80;;;17.80;;
68379;SDS011;57711;53.196;19.638;2024-01-06T14:22:54;60.40;;;22.50;;
68379;SDS011;57711;53.196;19.638;2024-01-06T14:25:22;153.30;;;51.60;;
68379;SDS011;57711;53.196;19.638;2024-01-06T14:27:49;107.10;;;39.80;;
68379;SDS011;57711;53.196;19.638;2024-01-06T14:30:16;54.40;;;21.00;;
68379;SDS011;57711;53.196;19.638;2024-01-06T14:32:44;60.50;;;25.10;;
68379;SDS011;57711;53.196;19.638;2024-01-06T14:35:11;56.00;;;24.30;;
68379;SDS011;57711;53.196;19.638;2024-01-06T14:37:41;45.00;;;24.30;;
68379;SDS011;57711;53.196;19.638;2024-01-06T14:40:08;42.70;;;17.60;;
68379;SDS011;57711;53.196;19.638;2024-01-06T14:42:36;28.80;;;13.60;;
68379;SDS011;57711;53.196;19.638;2024-01-06T14:45:04;28.60;;;14.00;;
68379;SDS011;57711;53.196;19.638;2024-01-06T14:47:31;36.00;;;16.30;;
68379;SDS011;57711;53.196;19.638;2024-01-06T14:49:59;30.80;;;13.70;;
68379;SDS011;57711;53.196;19.638;2024-01-06T14:52:27;33.40;;;14.00;;
68379;SDS011;57711;53.196;19.638;2024-01-06T14:54:55;30.40;;;13.40;;
68379;SDS011;57711;53.196;19.638;2024-01-06T14:57:22;30.10;;;13.50;;
68379;SDS011;57711;53.196;19.638;2024-01-06T14:59:49;28.00;;;13.60;;
68379;SDS011;57711;53.196;19.638;2024-01-06T15:02:16;25.50;;;12.20;;
68379;SDS011;57711;53.196;19.638;2024-01-06T15:04:44;25.40;;;10.30;;
68379;SDS011;57711;53.196;19.638;2024-01-06T15:07:12;40.70;;;16.60;;
68379;SDS011;57711;53.196;19.638;2024-01-06T15:09:39;74.60;;;28.80;;
68379;SDS011;57711;53.196;19.638;2024-01-06T15:12:10;57.20;;;23.20;;
68379;SDS011;57711;53.196;19.638;2024-01-06T15:14:37;51.90;;;21.60;;
68379;SDS011;57711;53.196;19.638;2024-01-06T15:17:05;45.80;;;17.40;;
68379;SDS011;57711;53.196;19.638;2024-01-06T15:19:32;26.60;;;13.80;;
68379;SDS011;57711;53.196;19.638;2024-01-06T15:22:00;66.10;;;24.40;;
68379;SDS011;57711;53.196;19.638;2024-01-06T15:24:28;72.00;;;23.80;;
68379;SDS011;57711;53.196;19.638;2024-01-06T15:26:55;46.60;;;18.00;;
68379;SDS011;57711;53.196;19.638;2024-01-06T15:29:23;41.20;;;17.50;;
68379;SDS011;57711;53.196;19.638;2024-01-06T15:31:50;110.00;;;33.70;;
68379;SDS011;57711;53.196;19.638;2024-01-06T15:34:24;57.30;;;22.00;;
68379;SDS011;57711;53.196;19.638;2024-01-06T15:36:51;44.60;;;18.60;;
68379;SDS011;57711;53.196;19.638;2024-01-06T15:39:19;22.80;;;11.40;;
68379;SDS011;57711;53.196;19.638;2024-01-06T15:41:46;42.60;;;16.40;;
68379;SDS011;57711;53.196;19.638;2024-01-06T15:44:14;17.40;;;9.20;;
68379;SDS011;57711;53.196;19.638;2024-01-06T15:46:41;19.10;;;10.10;;
68379;SDS011;57711;53.196;19.638;2024-01-06T15:49:09;18.80;;;9.80;;
68379;SDS011;57711;53.196;19.638;2024-01-06T15:52:14;30.30;;;12.70;;
68379;SDS011;57711;53.196;19.638;2024-01-06T15:54:41;19.40;;;9.70;;
68379;SDS011;57711;53.196;19.638;2024-01-06T15:57:09;43.70;;;17.00;;
68379;SDS011;57711;53.196;19.638;2024-01-06T15:59:37;17.30;;;7.80;;
68379;SDS011;57711;53.196;19.638;2024-01-06T16:02:04;23.80;;;8.80;;
68379;SDS011;57711;53.196;19.638;2024-01-06T16:04:32;42.00;;;18.40;;
68379;SDS011;57711;53.196;19.638;2024-01-06T16:06:59;102.80;;;44.40;;
68379;SDS011;57711;53.196;19.638;2024-01-06T16:09:26;147.50;;;67.30;;
68379;SDS011;57711;53.196;19.638;2024-01-06T16:11:53;74.70;;;34.90;;
68379;SDS011;57711;53.196;19.638;2024-01-06T16:14:24;46.10;;;21.80;;
68379;SDS011;57711;53.196;19.638;2024-01-06T16:16:58;42.60;;;19.90;;
68379;SDS011;57711;53.196;19.638;2024-01-06T17:15:51;12.50;;;5.80;;
68379;SDS011;57711;53.196;19.638;2024-01-06T17:18:22;15.30;;;7.00;;
68379;SDS011;57711;53.196;19.638;2024-01-06T17:20:50;20.60;;;9.20;;
68379;SDS011;57711;53.196;19.638;2024-01-06T17:23:17;32.20;;;13.30;;
68379;SDS011;57711;53.196;19.638;2024-01-06T17:25:44;43.10;;;16.30;;
68379;SDS011;57711;53.196;19.638;2024-01-06T17:28:12;18.30;;;8.00;;
68379;SDS011;57711;53.196;19.638;2024-01-06T17:30:39;25.60;;;10.10;;
68379;SDS011;57711;53.196;19.638;2024-01-06T17:33:07;20.40;;;9.30;;
68379;SDS011;57711;53.196;19.638;2024-01-06T17:35:34;21.70;;;10.90;;
68379;SDS011;57711;53.196;19.638;2024-01-06T17:38:02;13.70;;;7.30;;
68379;SDS011;57711;53.196;19.638;2024-01-06T17:40:30;14.80;;;7.00;;
68379;SDS011;57711;53.196;19.638;2024-01-06T17:42:57;15.10;;;6.40;;
68379;SDS011;57711;53.196;19.638;2024-01-06T17:45:27;37.50;;;13.10;;
68379;SDS011;57711;53.196;19.638;2024-01-06T17:47:55;36.50;;;15.10;;
68379;SDS011;57711;53.196;19.638;2024-01-06T17:50:22;13.40;;;7.00;;
68379;SDS011;57711;53.196;19.638;2024-01-06T17:52:52;18.60;;;7.10;;
68379;SDS011;57711;53.196;19.638;2024-01-06T17:55:42;13.40;;;7.50;;
68379;SDS011;57711;53.196;19.638;2024-01-06T17:58:19;11.20;;;6.60;;
68379;SDS011;57711;53.196;19.638;2024-01-06T18:00:46;11.60;;;6.90;;
68379;SDS011;57711;53.196;19.638;2024-01-06T18:03:14;12.40;;;6.70;;
68379;SDS011;57711;53.196;19.638;2024-01-06T18:05:47;15.10;;;8.10;;
68379;SDS011;57711;53.196;19.638;2024-01-06T18:09:58;16.40;;;8.50;;
68379;SDS011;57711;53.196;19.638;2024-01-06T18:12:54;20.70;;;10.30;;
68379;SDS011;57711;53.196;19.638;2024-01-06T18:15:21;27.60;;;11.30;;
68379;SDS011;57711;53.196;19.638;2024-01-06T18:17:49;15.80;;;8.00;;
68379;SDS011;57711;53.196;19.638;2024-01-06T18:20:16;13.50;;;7.10;;
68379;SDS011;57711;53.196;19.638;2024-01-06T18:22:48;17.90;;;8.60;;
68379;SDS011;57711;53.196;19.638;2024-01-06T18:25:16;15.40;;;6.60;;
68379;SDS011;57711;53.196;19.638;2024-01-06T18:27:43;30.10;;;14.70;;
68379;SDS011;57711;53.196;19.638;2024-01-06T18:30:12;45.40;;;22.40;;
68379;SDS011;57711;53.196;19.638;2024-01-06T18:32:39;29.80;;;13.30;;
68379;SDS011;57711;53.196;19.638;2024-01-06T18:35:09;18.10;;;10.50;;
68379;SDS011;57711;53.196;19.638;2024-01-06T18:37:45;12.30;;;7.10;;
68379;SDS011;57711;53.196;19.638;2024-01-06T18:40:13;49.80;;;19.50;;
68379;SDS011;57711;53.196;19.638;2024-01-06T18:42:40;20.70;;;9.20;;
68379;SDS011;57711;53.196;19.638;2024-01-06T18:45:07;112.80;;;35.90;;
68379;SDS011;57711;53.196;19.638;2024-01-06T18:47:35;75.30;;;27.30;;
68379;SDS011;57711;53.196;19.638;2024-01-06T18:50:04;20.10;;;8.90;;
68379;SDS011;57711;53.196;19.638;2024-01-06T18:52:36;14.40;;;7.00;;
68379;SDS011;57711;53.196;19.638;2024-01-06T18:55:24;31.30;;;14.30;;
68379;SDS011;57711;53.196;19.638;2024-01-06T18:57:51;402.90;;;217.70;;
68379;SDS011;57711;53.196;19.638;2024-01-06T19:00:19;227.20;;;123.40;;
68379;SDS011;57711;53.196;19.638;2024-01-06T19:02:47;222.00;;;83.80;;
68379;SDS011;57711;53.196;19.638;2024-01-06T19:05:17;171.10;;;52.80;;
68379;SDS011;57711;53.196;19.638;2024-01-06T19:08:00;146.60;;;34.10;;
68379;SDS011;57711;53.196;19.638;2024-01-06T19:10:28;108.50;;;26.70;;
68379;SDS011;57711;53.196;19.638;2024-01-06T19:12:59;201.20;;;41.00;;
68379;SDS011;57711;53.196;19.638;2024-01-06T19:15:26;306.30;;;51.20;;
68379;SDS011;57711;53.196;19.638;2024-01-06T19:17:54;251.20;;;40.70;;
68379;SDS011;57711;53.196;19.638;2024-01-06T19:20:21;577.00;;;178.90;;
68379;SDS011;57711;53.196;19.638;2024-01-06T19:22:51;326.80;;;154.80;;
68379;SDS011;57711;53.196;19.638;2024-01-06T19:25:34;365.30;;;92.10;;
68379;SDS011;57711;53.196;19.638;2024-01-06T19:28:03;306.00;;;69.00;;
68379;SDS011;57711;53.196;19.638;2024-01-06T19:30:31;218.70;;;53.70;;
68379;SDS011;57711;53.196;19.638;2024-01-06T19:32:58;428.00;;;105.30;;
68379;SDS011;57711;53.196;19.638;2024-01-06T19:35:25;370.10;;;91.00;;
68379;SDS011;57711;53.196;19.638;2024-01-06T19:37:53;440.50;;;100.70;;
68379;SDS011;57711;53.196;19.638;2024-01-06T19:40:20;370.10;;;91.20;;
68379;SDS011;57711;53.196;19.638;2024-01-06T19:42:48;214.70;;;57.20;;
68379;SDS011;57711;53.196;19.638;2024-01-06T19:45:18;260.60;;;70.20;;
68379;SDS011;57711;53.196;19.638;2024-01-06T19:47:46;329.90;;;94.10;;
68379;SDS011;57711;53.196;19.638;2024-01-06T19:50:15;300.00;;;82.30;;
68379;SDS011;57711;53.196;19.638;2024-01-06T19:52:44;235.40;;;56.40;;
68379;SDS011;57711;53.196;19.638;2024-01-06T19:55:55;153.30;;;39.60;;
68379;SDS011;57711;53.196;19.638;2024-01-06T19:58:22;95.50;;;27.20;;
68379;SDS011;57711;53.196;19.638;2024-01-06T20:00:50;86.10;;;25.80;;
68379;SDS011;57711;53.196;19.638;2024-01-06T20:03:17;134.10;;;45.20;;
68379;SDS011;57711;53.196;19.638;2024-01-06T20:05:45;82.20;;;39.90;;
68379;SDS011;57711;53.196;19.638;2024-01-06T20:08:13;56.80;;;25.20;;
68379;SDS011;57711;53.196;19.638;2024-01-06T20:10:40;66.40;;;29.00;;
68379;SDS011;57711;53.196;19.638;2024-01-06T20:13:07;37.70;;;15.30;;
68379;SDS011;57711;53.196;19.638;2024-01-06T20:15:35;99.70;;;39.30;;
68379;SDS011;57711;53.196;19.638;2024-01-06T20:18:03;91.10;;;35.20;;
68379;SDS011;57711;53.196;19.638;2024-01-06T20:20:35;127.10;;;45.10;;
68379;SDS011;57711;53.196;19.638;2024-01-06T20:23:12;207.80;;;60.70;;
68379;SDS011;57711;53.196;19.638;2024-01-06T20:25:43;97.70;;;34.40;;
68379;SDS011;57711;53.196;19.638;2024-01-06T20:28:14;165.90;;;51.40;;
68379;SDS011;57711;53.196;19.638;2024-01-06T20:30:54;115.80;;;42.30;;
68379;SDS011;57711;53.196;19.638;2024-01-06T20:33:25;30.80;;;14.90;;
68379;SDS011;57711;53.196;19.638;2024-01-06T20:35:53;56.40;;;27.00;;
68379;SDS011;57711;53.196;19.638;2024-01-06T20:38:21;24.30;;;12.20;;
68379;SDS011;57711;53.196;19.638;2024-01-06T20:40:50;24.10;;;11.80;;
68379;SDS011;57711;53.196;19.638;2024-01-06T20:43:17;27.10;;;11.90;;
68379;SDS011;57711;53.196;19.638;2024-01-06T20:45:47;19.80;;;8.80;;
68379;SDS011;57711;53.196;19.638;2024-01-06T20:48:16;15.80;;;6.70;;
68379;SDS011;57711;53.196;19.638;2024-01-06T20:50:44;8.00;;;4.40;;
68379;SDS011;57711;53.196;19.638;2024-01-06T20:53:12;9.70;;;5.40;;
68379;SDS011;57711;53.196;19.638;2024-01-06T20:55:41;57.30;;;13.10;;
68379;SDS011;57711;53.196;19.638;2024-01-06T20:58:15;20.30;;;7.10;;
68379;SDS011;57711;53.196;19.638;2024-01-06T21:00:47;12.80;;;7.00;;
68379;SDS011;57711;53.196;19.638;2024-01-06T21:03:15;8.70;;;4.80;;
68379;SDS011;57711;53.196;19.638;2024-01-06T21:05:42;11.30;;;5.30;;
68379;SDS011;57711;53.196;19.638;2024-01-06T21:08:10;12.90;;;7.20;;
68379;SDS011;57711;53.196;19.638;2024-01-06T21:10:37;33.90;;;11.00;;
68379;SDS011;57711;53.196;19.638;2024-01-06T21:13:04;13.50;;;5.90;;
68379;SDS011;57711;53.196;19.638;2024-01-06T21:15:31;9.10;;;4.90;;
68379;SDS011;57711;53.196;19.638;2024-01-06T21:17:59;10.40;;;5.30;;
68379;SDS011;57711;53.196;19.638;2024-01-06T21:20:26;13.50;;;5.80;;
68379;SDS011;57711;53.196;19.638;2024-01-06T21:22:53;9.50;;;4.40;;
68379;SDS011;57711;53.196;19.638;2024-01-06T21:25:28;25.00;;;8.30;;
68379;SDS011;57711;53.196;19.638;2024-01-06T21:28:38;27.90;;;9.80;;
68379;SDS011;57711;53.196;19.638;2024-01-06T21:31:25;160.50;;;38.10;;
68379;SDS011;57711;53.196;19.638;2024-01-06T21:34:18;58.40;;;17.80;;
68379;SDS011;57711;53.196;19.638;2024-01-06T21:36:50;17.60;;;7.20;;
68379;SDS011;57711;53.196;19.638;2024-01-06T21:39:18;20.20;;;6.60;;
68379;SDS011;57711;53.196;19.638;2024-01-06T21:41:45;19.90;;;7.80;;
68379;SDS011;57711;53.196;19.638;2024-01-06T21:44:12;15.20;;;5.40;;
68379;SDS011;57711;53.196;19.638;2024-01-06T21:46:40;12.90;;;5.70;;
68379;SDS011;57711;53.196;19.638;2024-01-06T21:49:11;8.80;;;4.50;;
68379;SDS011;57711;53.196;19.638;2024-01-06T21:51:45;10.10;;;4.50;;
68379;SDS011;57711;53.196;19.638;2024-01-06T21:54:19;16.30;;;8.70;;
68379;SDS011;57711;53.196;19.638;2024-01-06T21:57:20;36.10;;;13.60;;
68379;SDS011;57711;53.196;19.638;2024-01-06T21:59:48;17.60;;;7.80;;
68379;SDS011;57711;53.196;19.638;2024-01-06T22:02:16;26.70;;;9.80;;
68379;SDS011;57711;53.196;19.638;2024-01-06T22:04:48;30.70;;;14.10;;
68379;SDS011;57711;53.196;19.638;2024-01-06T22:07:15;21.70;;;9.50;;
68379;SDS011;57711;53.196;19.638;2024-01-06T22:09:42;22.00;;;10.40;;
68379;SDS011;57711;53.196;19.638;2024-01-06T22:12:12;15.20;;;7.30;;
68379;SDS011;57711;53.196;19.638;2024-01-06T22:15:01;18.80;;;8.10;;
68379;SDS011;57711;53.196;19.638;2024-01-06T22:17:34;14.10;;;6.00;;
